x

Boston 16 Nm East Of Boston, Ma (44013) Wave Buoy

2:50 - Fri 26th May 2017 All times are EDT. -4 hours from GMT.

  • Sig Wave height 6.2ft
  • Swell Direction
  • Peak Period 8s
  • Average Period 6s
  • Wind
    16mph, 18mph gusts
  • Sea Temp 53°f
  • Air Temp 51°f
  • Sea Pressure 999.3mb
  • Boston 16 Nm East Of Boston, Ma
  • Boston 16 Nm East Of Boston, Ma

More Historic Weather Station data

Upgrade to MSW Pro to gain access to the past 30 days of data for over 8000 Wavebouys and Weather Stations around the globe.

Join Pro

Comparision Forecast

View Surf forecast
   
ven. 05/26 2:50 6ft 8s 6s 16 18 mph 999.3mb 53f 51f
1:50 6ft 7s 6s 16 20 mph 998.4mb 53f 51f
12:50 6ft 8s 6s 16 22 mph 999.7mb 53f 51f
jeu. 05/25 11:50 6ft 8s 6s 16 20 mph 1000.7mb 53f 51f
10:50 6ft 7s 5s 16 20 mph 1001.7mb 53f 51f
9:50 6ft 7s 5s 11 16 mph 1003.6mb 53f 52f
8:50 6ft 6s 5s 16 20 mph 1003.7mb 53f 51f
7:50 5.5ft 6s 5s 16 20 mph 1004.4mb 53f 52f
6:50 5ft 6s 5s 20 22 mph 1004.6mb 52f 51f
5:50 5ft 5s 5s 22 27 mph 1004.4mb 52f 52f
4:50 5ft 6s 5s 22 27 mph 1005.5mb 52f 52f
3:50 5ft 5s 5s 20 25 mph 1006.1mb 52f 52f
2:50 5ft 6s 5s 22 27 mph 1006.5mb 52f 52f
1:50 5ft 5s 5s 22 29 mph 1006.8mb 52f 51f
12:50 4ft 4s 4s 25 29 mph 1007.6mb 52f 52f
11:50 3.5ft 4s 4s 25 29 mph 1008.3mb 52f 53f
10:50 3.5ft 4s 4s 22 27 mph 1008.9mb 52f 53f
9:50 3ft 9s 4s 18 22 mph 1010.4mb 52f 53f
8:50 3ft 3s 4s 18 22 mph 1010.4mb 53f 54f
7:50 2.5ft 7s 4s 16 20 mph 1010.8mb 53f 54f
6:50 2.5ft 9s 4s 13 16 mph 1011mb 53f 54f
5:50 2.5ft 9s 4s 13 16 mph 1010.9mb 54f 54f
4:50 2ft 10s 5s 13 16 mph 1011.2mb 54f 54f
3:50 1.6ft 7s 6s 11 11 mph 1010.4mb 54f 54f
2:50 1.3ft 7s 6s 9 9 mph 1010.6mb 54f 54f
1:50 1.6ft 7s 6s 7 7 mph 1011.1mb 54f 54f
12:50 1.3ft 8s 5s 4 4 mph 1011.3mb 54f 54f
mer. 05/24 11:50 1.6ft 8s 5s 4 4 mph 1010.5mb 54f 54f
10:50 2ft 7s 6s 4 4 mph 1010.6mb 54f 54f
9:50 2.5ft 7s 6s 4 4 mph 1011.4mb 54f 54f
8:50 2.5ft 7s 6s 4 4 mph 1010.6mb 55f 54f
7:50 2.5ft 8s 6s 7 7 mph 1009.7mb 55f 55f
6:50 2ft 7s 6s 4 4 mph 1010mb 56f 56f
5:50 2ft 8s 7s 2 2 mph 1010.6mb 56f 56f
4:50 1.3ft 7s 6s 4 7 mph 1009.8mb 56f 56f
3:50 1.3ft 8s 6s 9 9 mph 1008.4mb 56f 56f
2:50 1.3ft 8s 6s 4 7 mph 1009.1mb 56f 57f
1:50 1ft 6s 6s 2 2 mph 1009.3mb 55f 56f
12:50 1ft 7s 6s 2 2 mph 1009.1mb 55f 56f
11:50 1.3ft 7s 5s 7 9 mph 1008.4mb 55f 56f
10:50 1.3ft 6s 5s 4 4 mph 1008mb 55f 55f
9:50 1.3ft 6s 5s  -  2 mph 1007.9mb 55f 55f
8:50 1.3ft 5s 5s 4 4 mph 1007.9mb 54f 54f
7:50 1.3ft 5s 5s 2 4 mph 1007.8mb 54f 54f
6:50 1ft 9s 5s 7 7 mph 1007.7mb 54f 54f
5:50 1ft 9s 6s 7 7 mph 1007.8mb 54f 54f
4:50 1ft 5s 6s 4 4 mph 1007.6mb 54f 54f
3:50 1ft 6s 6s 2 2 mph 1008mb 54f 54f
2:50 1ft 9s 6s 2 2 mph 1008.3mb 54f 55f
1:50 1ft 6s 6s 4 4 mph 1008.1mb 54f 55f
12:50 1ft 6s 6s 9 9 mph 1008.7mb 54f 55f
mar. 05/23 11:50 1ft 10s 5s 9 9 mph 1008.9mb 54f 55f
10:50 1ft 7s 5s 9 11 mph 1009.2mb 54f 55f
9:50 1ft 6s 5s 9 11 mph 1009.3mb 54f 55f
8:50 1.3ft 6s 5s 9 11 mph 1009.3mb 54f 55f
7:50 1.3ft 5s 5s 11 11 mph 1009.3mb 54f 54f
6:50 1.3ft 6s 5s 9 9 mph 1009.5mb 55f 54f
5:50 1.3ft 6s 5s 9 9 mph 1009.8mb 55f 54f
4:50 1.3ft 6s 5s 7 7 mph 1009.9mb 56f 55f
3:50 1.3ft 6s 5s 7 7 mph 1010.6mb 56f 55f
2:50 1ft 6s 5s 4 4 mph 1010.9mb 56f 54f
1:50 1ft 6s 5s 4 4 mph 1011.1mb 56f 54f
12:50 1.3ft 6s 4s 2 2 mph 1012.2mb 55f 54f
11:50 1.3ft 6s 4s 7 7 mph 1011.9mb 55f 53f
10:50 1.3ft 6s 5s 7 7 mph 1012.2mb 54f 53f
9:50 1.3ft 6s 4s 4 7 mph 1012.7mb 53f 53f
8:50 1.3ft 6s 4s 9 13 mph 1012.9mb 53f 53f
7:50 1.6ft 4s 4s 9 11 mph 1012.7mb 53f 53f
6:50 1.6ft 4s 4s 7 9 mph 1013.1mb 53f 53f
5:50 1.6ft 5s 4s 9 9 mph 1012.4mb 53f 53f
4:50 1.6ft 5s 4s 7 9 mph 1012.3mb 53f 52f
3:50 1.6ft 4s 4s 11 13 mph 1012.3mb 53f 52f
2:50 1.6ft 4s 4s 11 11 mph 1012.5mb 54f 52f
1:50 1.6ft 4s 4s 9 9 mph 1012.7mb 54f 53f
12:50 1.6ft 4s 4s 4 4 mph 1013.7mb 54f 53f
lun. 05/22 11:50 1.6ft 4s 4s 4 7 mph 1014.2mb 54f 53f
10:50 1.6ft 4s 4s 9 11 mph 1014.3mb 54f 54f
9:50 1.6ft 4s 3s 11 13 mph 1015.1mb 54f 54f
8:50 2ft 4s 3s 11 13 mph 1015.4mb 55f 53f
7:50 2ft 4s 3s 16 18 mph 1015.8mb 55f 53f
6:50 2ft 4s 3s 16 18 mph 1016.7mb 55f 52f
5:50 1.6ft 3s 3s 18 20 mph 1017.2mb 55f 53f
4:50 1.3ft 3s 3s 11 16 mph 1017.9mb 55f 53f
3:50 1ft 3s 3s 13 18 mph 1018.8mb 55f 53f
2:50 1.3ft 3s 3s 9 13 mph 1019.6mb 54f 52f
1:50 1ft 3s 3s 16 18 mph 1020.1mb 54f 52f
12:50 1ft 3s 3s 9 11 mph 1021mb 54f 51f
11:50 1ft 3s 3s 9 16 mph 1021.7mb 53f 52f
10:50 1ft 3s 3s 11 13 mph 1021.8mb 53f 53f
9:50 0.7ft  -  3s 11 13 mph 1022mb 53f 53f
8:50 0.7ft  -  3s 13 16 mph 1022.3mb 53f 53f
7:50 0.7ft  -  4s 7 9 mph 1022.8mb 53f 53f